createdAt,value
2023-03-17T00:00:23.775Z,13.22
2023-03-17T00:03:03.231Z,13.41
2023-03-17T00:05:43.212Z,14.20
2023-03-17T00:08:32.318Z,13.70
2023-03-17T00:11:11.568Z,13.36
2023-03-17T00:13:52.598Z,13.31
2023-03-17T00:16:43.292Z,13.67
2023-03-17T00:19:23.801Z,13.45
2023-03-17T00:22:02.968Z,13.79
2023-03-17T00:24:42.025Z,13.76
2023-03-17T00:27:21.685Z,13.12
2023-03-17T00:30:00.731Z,14.16
2023-03-17T00:32:46.283Z,14.21
2023-03-17T00:35:29.161Z,13.99
2023-03-17T00:38:08.208Z,12.91
2023-03-17T00:40:50.373Z,12.40
2023-03-17T00:43:30.702Z,12.82
2023-03-17T00:46:19.313Z,13.04
2023-03-17T00:49:03.613Z,12.89
2023-03-17T00:51:44.247Z,14.29
2023-03-17T00:54:25.169Z,13.84
2023-03-17T00:57:04.330Z,13.61
2023-03-17T00:59:49.086Z,14.03
2023-03-17T01:02:28.267Z,14.28
2023-03-17T01:05:12.795Z,13.69
2023-03-17T01:07:55.859Z,13.77
2023-03-17T01:10:36.136Z,13.89
2023-03-17T01:13:18.030Z,13.97
2023-03-17T01:15:58.770Z,13.63
2023-03-17T01:18:37.907Z,13.73
2023-03-17T01:21:22.326Z,14.16
2023-03-17T01:24:01.428Z,13.94
2023-03-17T01:26:41.199Z,14.15
2023-03-17T01:29:20.311Z,13.60
2023-03-17T01:31:59.681Z,13.88
2023-03-17T01:34:38.951Z,14.18
2023-03-17T01:37:23.202Z,14.29
2023-03-17T01:40:04.422Z,13.48
2023-03-17T01:42:43.830Z,14.04
2023-03-17T01:46:05.661Z,13.51
2023-03-17T01:48:49.104Z,13.38
2023-03-17T01:51:34.254Z,13.08
2023-03-17T01:54:23.280Z,13.64
2023-03-17T01:57:08.609Z,12.96
2023-03-17T01:59:54.262Z,13.32
2023-03-17T02:02:37.798Z,12.54
2023-03-17T02:05:21.350Z,13.45
2023-03-17T02:08:01.174Z,13.26
2023-03-17T02:10:46.632Z,14.05
2023-03-17T02:13:25.867Z,13.73
2023-03-17T02:16:05.329Z,13.70
2023-03-17T02:18:44.372Z,14.54
2023-03-17T02:21:53.553Z,14.62
2023-03-17T02:24:38.696Z,14.38
2023-03-17T02:27:22.418Z,13.52
2023-03-17T02:30:01.478Z,14.79
2023-03-17T02:32:44.594Z,14.21
2023-03-17T02:35:25.418Z,12.86
2023-03-17T02:38:09.628Z,12.86
2023-03-17T02:40:48.656Z,12.21
2023-03-17T02:43:27.742Z,11.10
2023-03-17T02:46:06.785Z,12.40
2023-03-17T02:48:47.399Z,11.43
2023-03-17T02:51:26.526Z,10.61
2023-03-17T02:54:10.738Z,10.28
2023-03-17T02:56:49.781Z,10.34
2023-03-17T02:59:28.789Z,10.72
2023-03-17T03:02:07.913Z,11.01
2023-03-17T03:04:47.781Z,11.18
2023-03-17T03:07:27.402Z,12.11
2023-03-17T03:10:12.466Z,12.26
2023-03-17T03:12:51.846Z,11.72
2023-03-17T03:15:31.027Z,11.20
2023-03-17T03:18:10.867Z,11.51
2023-03-17T03:20:51.802Z,12.11
2023-03-17T03:23:31.033Z,12.96
2023-03-17T03:26:15.257Z,13.55
2023-03-17T03:28:54.938Z,12.81
2023-03-17T03:31:34.637Z,11.30
2023-03-17T03:34:13.689Z,11.14
2023-03-17T03:36:52.762Z,10.32
2023-03-17T03:39:32.012Z,11.70
2023-03-17T03:42:17.364Z,10.90
2023-03-17T03:44:57.961Z,11.55
2023-03-17T03:47:37.025Z,12.07
2023-03-17T03:50:17.917Z,12.37
2023-03-17T03:52:57.067Z,12.01
2023-03-17T03:55:36.653Z,11.93
2023-03-17T03:58:21.349Z,11.80
2023-03-17T04:01:00.563Z,11.30
2023-03-17T04:03:39.681Z,11.03
2023-03-17T04:06:18.903Z,11.93
2023-03-17T04:08:58.487Z,11.84
2023-03-17T04:11:38.164Z,12.48
2023-03-17T04:14:22.352Z,12.41
2023-03-17T04:17:01.456Z,12.59
2023-03-17T04:19:40.545Z,13.06
2023-03-17T04:22:20.499Z,13.87
2023-03-17T04:24:59.647Z,12.80
2023-03-17T04:27:39.023Z,14.07
2023-03-17T04:30:23.985Z,13.22
2023-03-17T04:33:03.105Z,12.83
2023-03-17T04:35:42.475Z,13.34
2023-03-17T04:38:21.724Z,13.12
2023-03-17T04:41:00.766Z,11.14
2023-03-17T04:43:39.851Z,10.69
2023-03-17T04:46:24.742Z,10.63
2023-03-17T04:49:03.920Z,10.30
2023-03-17T04:51:43.152Z,10.81
2023-03-17T04:54:22.645Z,12.21
2023-03-17T04:57:01.809Z,11.79
2023-03-17T04:59:40.854Z,11.99
2023-03-17T05:02:26.296Z,11.61
2023-03-17T05:05:05.430Z,12.07
2023-03-17T05:07:45.916Z,11.98
2023-03-17T05:10:25.213Z,11.53
2023-03-17T05:13:04.333Z,11.84
2023-03-17T05:15:43.368Z,12.79
2023-03-17T05:18:28.572Z,12.53
2023-03-17T05:21:08.711Z,12.44
2023-03-17T05:23:48.094Z,12.87
2023-03-17T05:26:27.205Z,13.98
2023-03-17T05:29:06.473Z,12.91
2023-03-17T05:31:45.528Z,13.12
2023-03-17T05:34:29.681Z,12.19
2023-03-17T05:37:08.779Z,11.87
2023-03-17T05:39:48.152Z,10.98
2023-03-17T05:42:27.360Z,9.85
2023-03-17T05:45:06.956Z,11.46
2023-03-17T05:47:46.032Z,11.04
2023-03-17T05:50:31.046Z,12.94
2023-03-17T05:53:10.160Z,12.54
2023-03-17T05:55:52.300Z,13.78
2023-03-17T05:58:31.952Z,13.57
2023-03-17T06:01:14.400Z,13.17
2023-03-17T06:03:53.465Z,13.38
2023-03-17T06:06:37.656Z,13.56
2023-03-17T06:09:16.891Z,12.57
2023-03-17T06:11:56.233Z,12.59
2023-03-17T06:14:35.300Z,12.91
2023-03-17T06:17:15.581Z,12.31
2023-03-17T06:19:54.769Z,12.02
2023-03-17T06:22:46.314Z,13.27
2023-03-17T06:25:31.148Z,13.43
2023-03-17T06:28:12.119Z,13.28
2023-03-17T06:30:51.212Z,13.37
2023-03-17T06:33:31.042Z,13.39
2023-03-17T06:36:10.357Z,13.86
2023-03-17T06:38:54.587Z,14.72
2023-03-17T06:41:34.167Z,15.75
2023-03-17T06:44:14.308Z,16.67
2023-03-17T06:46:53.751Z,17.54
2023-03-17T06:49:33.082Z,18.58
2023-03-17T06:52:12.711Z,20.23
2023-03-17T06:54:56.944Z,18.88
2023-03-17T06:57:36.003Z,17.47
2023-03-17T07:00:16.966Z,16.96
2023-03-17T07:02:56.085Z,17.76
2023-03-17T07:05:35.211Z,18.37
2023-03-17T07:08:14.799Z,18.86
2023-03-17T07:11:02.078Z,19.38
2023-03-17T07:13:41.842Z,18.68
2023-03-17T07:16:22.435Z,18.11
2023-03-17T07:19:02.478Z,17.23
2023-03-17T07:21:42.059Z,16.26
2023-03-17T07:24:21.295Z,16.93
2023-03-17T07:27:05.653Z,16.92
2023-03-17T07:29:44.785Z,15.75
2023-03-17T07:32:24.291Z,16.40
2023-03-17T07:35:03.768Z,16.28
2023-03-17T07:37:43.095Z,15.30
2023-03-17T07:40:22.226Z,15.82
2023-03-17T07:43:06.374Z,14.56
2023-03-17T07:45:45.737Z,11.79
2023-03-17T07:48:25.156Z,10.66
2023-03-17T07:51:04.221Z,10.57
2023-03-17T07:53:43.491Z,9.94
2023-03-17T07:56:22.670Z,9.86
2023-03-17T07:59:07.616Z,10.35
2023-03-17T08:01:47.292Z,10.19
2023-03-17T08:04:26.458Z,10.27
2023-03-17T08:07:07.358Z,10.66
2023-03-17T08:09:47.531Z,10.05
2023-03-17T08:12:26.864Z,9.88
2023-03-17T08:15:11.938Z,9.84
2023-03-17T08:17:51.117Z,10.00
2023-03-17T08:20:30.862Z,10.34
2023-03-17T08:23:10.201Z,10.51
2023-03-17T08:25:49.791Z,10.51
2023-03-17T08:28:28.933Z,10.50
2023-03-17T08:31:22.766Z,10.43
2023-03-17T08:34:03.854Z,10.57
2023-03-17T08:36:43.385Z,11.08
2023-03-17T08:39:22.569Z,10.16
2023-03-17T08:42:01.727Z,10.24
2023-03-17T08:44:42.878Z,9.72
2023-03-17T08:47:28.516Z,10.14
2023-03-17T08:50:07.586Z,9.97
2023-03-17T08:52:46.762Z,10.82
2023-03-17T08:55:26.332Z,10.19
2023-03-17T08:58:06.497Z,9.79
2023-03-17T09:00:47.857Z,9.53
2023-03-17T09:03:32.001Z,9.83
2023-03-17T09:06:12.651Z,9.30
2023-03-17T09:08:56.358Z,9.04
2023-03-17T09:11:37.789Z,9.77
2023-03-17T09:14:17.214Z,8.97
2023-03-17T09:16:56.475Z,9.51
2023-03-17T09:19:41.377Z,9.36
2023-03-17T09:22:22.200Z,9.33
2023-03-17T09:25:01.707Z,8.89
2023-03-17T09:27:41.044Z,9.31
2023-03-17T09:30:20.608Z,9.05
2023-03-17T09:33:00.017Z,9.22
2023-03-17T09:35:44.206Z,9.30
2023-03-17T09:38:23.797Z,9.30
2023-03-17T09:41:11.020Z,9.25
2023-03-17T09:43:59.276Z,9.46
2023-03-17T09:46:50.316Z,9.37
2023-03-17T09:49:36.870Z,9.11
2023-03-17T09:52:26.266Z,8.99
2023-03-17T09:55:08.423Z,9.80
2023-03-17T09:57:47.947Z,8.76
2023-03-17T10:00:32.338Z,9.25
2023-03-17T10:03:18.610Z,8.79
2023-03-17T10:05:57.993Z,9.50
2023-03-17T10:08:52.595Z,8.79
2023-03-17T10:11:45.358Z,8.47
2023-03-17T10:14:45.016Z,8.57
2023-03-17T10:17:27.328Z,8.56
2023-03-17T10:20:14.545Z,8.72
2023-03-17T10:22:59.123Z,8.57
2023-03-17T10:25:43.799Z,8.80
2023-03-17T10:28:37.128Z,8.96
2023-03-17T10:31:23.957Z,8.99
2023-03-17T10:34:11.155Z,8.26
2023-03-17T10:36:53.523Z,9.02
2023-03-17T10:39:33.039Z,8.81
2023-03-17T10:42:27.065Z,8.43
2023-03-17T10:45:13.497Z,8.78
2023-03-17T10:47:57.440Z,8.75
2023-03-17T10:50:39.125Z,8.64
2023-03-17T10:53:31.223Z,8.61
2023-03-17T10:56:16.954Z,8.57
2023-03-17T10:59:03.117Z,8.27
2023-03-17T11:01:46.003Z,8.16
2023-03-17T11:04:37.358Z,8.35
2023-03-17T11:07:24.763Z,8.25
2023-03-17T11:10:07.952Z,8.11
2023-03-17T11:12:48.372Z,8.22
2023-03-17T11:15:39.959Z,7.75
2023-03-17T11:18:26.676Z,8.28
2023-03-17T11:21:14.189Z,7.98
2023-03-17T11:23:59.590Z,8.41
2023-03-17T11:26:58.553Z,8.06
2023-03-17T11:29:52.080Z,7.46
2023-03-17T11:32:45.516Z,7.51
2023-03-17T11:35:42.451Z,7.42
2023-03-17T11:38:29.313Z,7.44
2023-03-17T11:41:53.295Z,7.67
2023-03-17T11:44:51.824Z,7.44
2023-03-17T11:47:55.366Z,7.47
2023-03-17T11:50:41.082Z,7.24
2023-03-17T11:53:49.837Z,6.81
2023-03-17T11:56:40.401Z,6.80
2023-03-17T11:59:31.093Z,6.57
2023-03-17T12:02:22.777Z,6.38
2023-03-17T12:05:11.280Z,6.65
2023-03-17T12:07:55.903Z,7.05
2023-03-17T12:10:41.606Z,6.82
2023-03-17T12:13:29.004Z,6.72
2023-03-17T12:16:13.256Z,6.70
2023-03-17T12:19:05.097Z,7.00
2023-03-17T12:21:56.752Z,6.83
2023-03-17T12:24:44.714Z,6.52
2023-03-17T12:27:30.476Z,6.42
2023-03-17T12:30:21.636Z,6.47
2023-03-17T12:33:10.586Z,6.79
2023-03-17T12:35:49.913Z,6.84
2023-03-17T12:38:43.321Z,6.44
2023-03-17T12:41:39.889Z,6.43
2023-03-17T12:44:37.746Z,6.20
2023-03-17T12:47:46.642Z,6.10
2023-03-17T12:50:43.811Z,5.96
2023-03-17T12:53:37.144Z,6.09
2023-03-17T12:56:26.099Z,6.46
2023-03-17T12:59:10.775Z,6.56
2023-03-17T13:01:53.356Z,6.38
2023-03-17T13:04:36.591Z,6.28
2023-03-17T13:07:21.875Z,6.00
2023-03-17T13:10:26.241Z,6.25
2023-03-17T13:13:31.821Z,5.89
2023-03-17T13:16:12.652Z,5.71
2023-03-17T13:18:57.181Z,5.84
2023-03-17T13:21:36.593Z,5.67
2023-03-17T13:24:48.171Z,5.92
2023-03-17T13:27:59.276Z,6.13
2023-03-17T13:31:02.747Z,6.47
2023-03-17T13:33:42.895Z,6.24
2023-03-17T13:36:47.562Z,5.99
2023-03-17T13:40:10.799Z,6.92
2023-03-17T13:43:18.533Z,6.28
2023-03-17T13:45:57.912Z,7.08
2023-03-17T13:48:44.970Z,6.55
2023-03-17T13:51:29.563Z,6.19
2023-03-17T13:54:26.642Z,6.02
2023-03-17T13:57:27.384Z,6.39
2023-03-17T14:00:28.824Z,5.75
2023-03-17T14:03:13.359Z,6.05
2023-03-17T14:05:57.935Z,6.31
2023-03-17T14:08:40.073Z,6.33
2023-03-17T14:11:28.433Z,6.71
2023-03-17T14:14:31.947Z,6.37
2023-03-17T14:17:22.701Z,5.32
2023-03-17T14:20:14.175Z,5.14
2023-03-17T14:22:55.014Z,6.37
2023-03-17T14:25:40.246Z,6.40
2023-03-17T14:28:24.432Z,6.82
2023-03-17T14:31:07.871Z,6.24
2023-03-17T14:33:52.723Z,5.62
2023-03-17T14:36:33.699Z,5.86
2023-03-17T14:39:12.805Z,6.51
2023-03-17T14:41:53.001Z,7.41
2023-03-17T14:44:32.108Z,6.94
2023-03-17T14:47:14.983Z,6.97
2023-03-17T14:50:01.364Z,7.04
2023-03-17T14:52:42.295Z,7.50
2023-03-17T14:55:23.909Z,18.23
2023-03-17T14:58:03.125Z,9.52
2023-03-17T15:00:44.439Z,8.76
2023-03-17T15:03:27.098Z,9.01
2023-03-17T15:06:30.621Z,9.44
2023-03-17T15:09:11.639Z,8.01
2023-03-17T15:11:52.293Z,7.17
2023-03-17T15:14:39.795Z,7.65
2023-03-17T15:17:26.490Z,20.27
2023-03-17T15:20:10.848Z,17.23
2023-03-17T15:23:02.926Z,27.84
2023-03-17T15:25:45.666Z,11.64
2023-03-17T15:28:27.032Z,12.80
2023-03-17T15:31:25.952Z,13.84
2023-03-17T15:34:06.060Z,15.53
2023-03-17T15:36:48.614Z,17.77
2023-03-17T15:39:32.732Z,14.06
2023-03-17T15:42:12.132Z,7.57
2023-03-17T15:44:51.182Z,10.85
2023-03-17T15:47:34.442Z,7.41
2023-03-17T15:50:25.173Z,6.69
2023-03-17T15:53:05.338Z,6.17
2023-03-17T15:55:49.467Z,4.80
2023-03-17T15:58:28.887Z,4.75
2023-03-17T16:01:08.429Z,4.33
2023-03-17T16:03:48.317Z,4.03
2023-03-17T16:06:29.043Z,3.71
2023-03-17T16:09:08.578Z,3.21
2023-03-17T16:11:53.232Z,3.12
2023-03-17T16:14:32.347Z,2.86
2023-03-17T16:17:12.308Z,3.14
2023-03-17T16:19:52.227Z,2.84
2023-03-17T16:22:45.213Z,3.23
2023-03-17T16:25:31.652Z,3.55
2023-03-17T16:28:22.756Z,3.37
2023-03-17T16:31:03.992Z,5.86
2023-03-17T16:33:47.240Z,6.77
2023-03-17T16:36:29.506Z,4.92
2023-03-17T16:39:09.106Z,3.90
2023-03-17T16:41:48.221Z,3.52
2023-03-17T16:44:32.951Z,2.94
2023-03-17T16:47:12.514Z,3.15
2023-03-17T16:49:51.555Z,3.16
2023-03-17T16:52:31.282Z,3.60
2023-03-17T16:55:10.848Z,3.82
2023-03-17T16:57:52.384Z,5.39
2023-03-17T17:00:38.226Z,4.89
2023-03-17T17:03:17.333Z,4.50
2023-03-17T17:05:56.845Z,4.98
2023-03-17T17:08:35.863Z,5.76
2023-03-17T17:11:15.281Z,4.76
2023-03-17T17:13:55.992Z,11.19
2023-03-17T17:16:43.524Z,13.50
2023-03-17T17:19:24.047Z,4.61
2023-03-17T17:22:03.202Z,4.04
2023-03-17T17:24:42.229Z,10.99
2023-03-17T17:27:21.353Z,8.83
2023-03-17T17:30:00.403Z,11.47
2023-03-17T17:32:44.796Z,3.92
2023-03-17T17:35:23.853Z,4.66
2023-03-17T17:38:03.342Z,21.86
2023-03-17T17:40:42.350Z,6.19
2023-03-17T17:43:21.615Z,7.21
2023-03-17T17:46:02.015Z,13.19
2023-03-17T17:48:46.306Z,38.98
2023-03-17T17:51:25.404Z,6.44
2023-03-17T17:54:04.497Z,4.63
2023-03-17T17:56:47.755Z,4.65
2023-03-17T17:59:26.914Z,7.85
2023-03-17T18:02:06.322Z,16.06
2023-03-17T18:04:50.548Z,15.85
2023-03-17T18:07:29.562Z,7.11
2023-03-17T18:10:08.632Z,8.06
2023-03-17T18:12:47.646Z,8.13
2023-03-17T18:15:27.517Z,7.47
2023-03-17T18:18:06.713Z,4.84
2023-03-17T18:20:50.876Z,5.19
2023-03-17T18:23:29.993Z,5.64
2023-03-17T18:26:11.445Z,6.16
2023-03-17T18:28:51.376Z,8.20
2023-03-17T18:31:35.867Z,27.64
2023-03-17T18:34:21.194Z,17.01
2023-03-17T18:37:08.705Z,8.72
2023-03-17T18:40:09.576Z,9.40
2023-03-17T18:42:49.688Z,13.64
2023-03-17T18:45:29.951Z,20.15
2023-03-17T18:48:09.010Z,15.54
2023-03-17T18:50:48.100Z,12.90
2023-03-17T18:53:35.042Z,17.27
2023-03-17T18:56:15.742Z,27.32
2023-03-17T18:58:55.609Z,19.99
2023-03-17T19:01:34.826Z,15.56
2023-03-17T19:04:14.173Z,17.03
2023-03-17T19:06:53.261Z,29.06
2023-03-17T19:09:37.558Z,16.93
2023-03-17T19:12:17.117Z,14.36
2023-03-17T19:14:56.289Z,24.44
2023-03-17T19:17:35.804Z,17.87
2023-03-17T19:20:16.736Z,17.47
2023-03-17T19:22:55.804Z,15.04
2023-03-17T19:25:40.068Z,11.90
2023-03-17T19:28:19.083Z,15.31
2023-03-17T19:30:58.214Z,16.85
2023-03-17T19:33:37.258Z,11.54
2023-03-17T19:36:19.455Z,11.53
2023-03-17T19:38:58.498Z,11.76
2023-03-17T19:41:42.746Z,11.72
2023-03-17T19:44:22.283Z,9.88
2023-03-17T19:47:05.948Z,7.74
2023-03-17T19:49:45.421Z,8.70
2023-03-17T19:52:24.774Z,11.49
2023-03-17T19:55:08.089Z,12.00
2023-03-17T19:57:52.614Z,12.42
2023-03-17T20:00:32.464Z,8.34
2023-03-17T20:03:13.693Z,7.36
2023-03-17T20:05:53.212Z,8.08
2023-03-17T20:08:33.061Z,8.34
2023-03-17T20:11:12.895Z,8.15
2023-03-17T20:13:57.094Z,7.85
2023-03-17T20:16:38.018Z,9.25
2023-03-17T20:19:17.789Z,8.44
2023-03-17T20:21:59.430Z,8.24
2023-03-17T20:24:39.470Z,7.65
2023-03-17T20:27:20.669Z,7.21
2023-03-17T20:30:05.156Z,7.26
2023-03-17T20:32:45.193Z,10.95
2023-03-17T20:35:25.417Z,8.12
2023-03-17T20:38:04.472Z,9.41
2023-03-17T20:40:44.249Z,11.03
2023-03-17T20:43:23.680Z,9.53
2023-03-17T20:46:09.523Z,9.50
2023-03-17T20:48:49.137Z,9.90
2023-03-17T20:51:28.285Z,8.58
2023-03-17T20:54:07.367Z,7.90
2023-03-17T20:56:46.689Z,7.01
2023-03-17T20:59:25.750Z,7.06
2023-03-17T21:02:10.518Z,6.16
2023-03-17T21:04:49.819Z,6.39
2023-03-17T21:07:29.646Z,6.72
2023-03-17T21:10:09.374Z,6.66
2023-03-17T21:12:48.487Z,7.66
2023-03-17T21:15:27.620Z,8.07
2023-03-17T21:18:11.848Z,6.80
2023-03-17T21:20:50.882Z,7.23
2023-03-17T21:23:30.155Z,6.88
2023-03-17T21:26:09.478Z,7.07
2023-03-17T21:28:49.738Z,7.17
2023-03-17T21:31:28.878Z,7.39
2023-03-17T21:34:13.411Z,8.10
2023-03-17T21:36:52.502Z,9.92
2023-03-17T21:39:33.724Z,9.12
2023-03-17T21:42:13.380Z,9.66
2023-03-17T21:44:53.100Z,8.99
2023-03-17T21:47:32.352Z,7.60
2023-03-17T21:50:18.093Z,7.80
2023-03-17T21:52:57.241Z,8.08
2023-03-17T21:55:36.896Z,7.50
2023-03-17T21:58:15.996Z,6.76
2023-03-17T22:00:55.066Z,6.77
2023-03-17T22:03:37.163Z,6.69
2023-03-17T22:06:22.785Z,7.43
2023-03-17T22:09:01.903Z,7.90
2023-03-17T22:11:40.922Z,8.35
2023-03-17T22:14:21.679Z,10.28
2023-03-17T22:17:00.676Z,8.56
2023-03-17T22:19:41.159Z,8.96
2023-03-17T22:22:25.686Z,9.04
2023-03-17T22:25:06.141Z,10.07
2023-03-17T22:27:45.188Z,9.97
2023-03-17T22:30:24.715Z,9.21
2023-03-17T22:33:03.828Z,10.22
2023-03-17T22:35:44.846Z,8.78
2023-03-17T22:38:29.447Z,8.87
2023-03-17T22:41:10.090Z,8.59
2023-03-17T22:43:49.570Z,9.69
2023-03-17T22:46:30.350Z,9.32
2023-03-17T22:49:09.829Z,8.82
2023-03-17T22:51:51.133Z,8.09
2023-03-17T22:54:35.265Z,8.65
2023-03-17T22:57:14.337Z,8.83
2023-03-17T22:59:53.557Z,8.15
2023-03-17T23:02:33.193Z,7.85
2023-03-17T23:05:12.901Z,7.74
2023-03-17T23:07:52.103Z,7.02
2023-03-17T23:10:36.547Z,8.09
2023-03-17T23:13:16.589Z,13.18
2023-03-17T23:15:55.744Z,13.48
2023-03-17T23:18:35.073Z,15.15
2023-03-17T23:21:15.741Z,17.58
2023-03-17T23:23:54.970Z,16.40
2023-03-17T23:26:39.078Z,13.70
2023-03-17T23:29:18.209Z,11.45
2023-03-17T23:31:57.224Z,14.04
2023-03-17T23:34:36.380Z,19.87
2023-03-17T23:37:15.618Z,14.47
2023-03-17T23:39:54.760Z,19.11
2023-03-17T23:42:38.991Z,21.37
2023-03-17T23:45:19.398Z,19.54
2023-03-17T23:48:00.074Z,12.24
2023-03-17T23:50:39.180Z,12.42
2023-03-17T23:53:18.950Z,12.26
2023-03-17T23:55:59.175Z,12.50
2023-03-17T23:58:44.177Z,12.56
